Time;durP1;ratioP1;P1;durP2;ratioP2;P2;SDS_P1;SDS_P2;PMS_P1;PMS_P2;Temp;Humidity;BMP_temperature;BMP_pressure;BME280_temperature;BME280_humidity;BME280_pressure;Samples;Min_cycle;Max_cycle;Signal;HPM_P1;HPM_P2
2021/06/13 00:01:33;;;;;;;8.80;4.70;;;23.60;76.70;;;;;;12007619;28;20063;-79
2021/06/13 00:07:21;;;;;;;5.38;3.97;;;23.70;76.60;;;;;;12020889;28;20052;-80
2021/06/13 00:13:08;;;;;;;6.80;4.03;;;23.70;76.40;;;;;;11997919;28;20044;-79
2021/06/13 00:18:55;;;;;;;5.18;3.65;;;23.70;75.60;;;;;;12005878;28;20642;-76
2021/06/13 00:24:44;;;;;;;5.03;4.22;;;23.70;75.90;;;;;;12004887;28;20044;-75
2021/06/13 00:30:31;;;;;;;6.55;4.00;;;23.70;75.90;;;;;;12021692;28;20057;-75
2021/06/13 00:36:18;;;;;;;5.97;3.83;;;23.70;75.70;;;;;;12014360;28;20178;-79
2021/06/13 00:42:06;;;;;;;5.68;3.92;;;23.70;75.70;;;;;;12018264;28;20554;-80
2021/06/13 00:47:52;;;;;;;7.72;4.40;;;23.60;75.90;;;;;;11987448;28;20049;-79
2021/06/13 00:53:40;;;;;;;4.90;3.97;;;23.50;76.00;;;;;;11958722;28;20432;-79
2021/06/13 00:59:28;;;;;;;4.82;3.95;;;23.50;76.50;;;;;;11968202;28;20179;-80
2021/06/13 01:05:15;;;;;;;6.55;4.25;;;23.40;76.70;;;;;;11980450;28;20065;-79
2021/06/13 01:11:11;;;;;;;6.25;4.60;;;23.50;76.50;;;;;;11979826;28;20052;-79
2021/06/13 01:17:05;;;;;;;6.57;4.05;;;23.30;76.40;;;;;;11983306;28;20103;-79
2021/06/13 01:23:42;;;;;;;9.30;4.32;;;23.40;76.70;;;;;;11986579;28;20049;-79
2021/06/13 01:29:32;;;;;;;7.03;4.10;;;23.40;77.00;;;;;;11736021;28;20100;-79
2021/06/13 01:35:22;;;;;;;8.65;3.85;;;23.40;77.20;;;;;;11738523;28;20090;-78
2021/06/13 01:41:11;;;;;;;6.60;4.07;;;23.30;77.80;;;;;;11739379;28;20050;-79
2021/06/13 01:47:02;;;;;;;8.10;4.28;;;23.20;77.60;;;;;;11745485;28;20059;-79
2021/06/13 01:52:50;;;;;;;11.32;5.03;;;23.20;77.50;;;;;;11749442;28;20051;-79
2021/06/13 10:24:24;;;;;;;6.93;2.28;;;23.80;61.90;;;;;;12039411;27;20454;-84
2021/06/13 10:30:12;;;;;;;7.65;2.13;;;24.20;62.30;;;;;;11980519;28;20148;-83
2021/06/13 10:36:01;;;;;;;7.13;2.40;;;24.70;59.40;;;;;;12025030;28;20041;-84
2021/06/13 10:41:50;;;;;;;7.63;2.20;;;25.00;61.00;;;;;;12033025;28;20064;-84
2021/06/13 10:47:37;;;;;;;5.32;2.58;;;25.30;61.10;;;;;;12029015;28;20131;-84
2021/06/13 10:53:33;;;;;;;6.43;2.40;;;25.40;59.80;;;;;;12046032;28;20053;-85
2021/06/13 10:59:23;;;;;;;10.77;2.28;;;25.60;59.90;;;;;;12008721;28;20088;-77
2021/06/13 11:05:10;;;;;;;5.63;2.10;;;25.70;58.80;;;;;;12023947;28;20045;-83
2021/06/13 11:10:57;;;;;;;5.85;3.30;;;25.80;59.10;;;;;;12004412;28;20057;-84
2021/06/13 11:16:47;;;;;;;10.15;2.90;;;25.80;58.20;;;;;;11998873;28;20483;-84
2021/06/13 11:22:34;;;;;;;5.30;2.45;;;25.90;57.30;;;;;;12011816;28;20053;-84
2021/06/13 11:28:23;;;;;;;4.18;1.80;;;25.90;56.70;;;;;;11996298;28;20436;-85
2021/06/13 11:34:12;;;;;;;3.92;1.90;;;26.10;56.30;;;;;;11985852;28;20057;-83
2021/06/13 11:40:01;;;;;;;3.97;1.75;;;26.20;55.10;;;;;;11971666;28;20041;-84
2021/06/13 11:45:55;;;;;;;5.63;1.80;;;26.30;53.20;;;;;;11977023;28;20053;-83
2021/06/13 11:51:55;;;;;;;5.30;1.75;;;26.30;53.40;;;;;;11964555;28;20053;-86
2021/06/13 11:57:42;;;;;;;4.88;1.70;;;26.50;53.60;;;;;;11966442;28;20053;-84
2021/06/13 12:03:30;;;;;;;5.53;2.13;;;26.70;52.40;;;;;;11971050;28;20097;-85
2021/06/13 12:09:20;;;;;;;6.63;1.88;;;26.80;51.60;;;;;;11958913;28;20050;-86
2021/06/13 12:15:08;;;;;;;3.35;1.83;;;26.80;52.10;;;;;;11956981;28;20041;-85
2021/06/13 12:21:02;;;;;;;7.65;1.80;;;27.00;51.70;;;;;;11962781;28;20057;-83
2021/06/13 12:32:56;;;;;;;5.93;3.50;;;27.20;51.30;;;;;;11955558;28;20724;-87
2021/06/13 12:38:43;;;;;;;7.43;4.15;;;27.30;51.90;;;;;;11951678;28;20475;-86
2021/06/13 12:44:31;;;;;;;8.20;4.43;;;27.50;51.50;;;;;;11978901;28;20436;-85
2021/06/13 12:50:24;;;;;;;5.05;2.30;;;27.50;50.40;;;;;;11984655;28;20053;-87
2021/06/13 12:56:13;;;;;;;7.37;3.70;;;27.70;50.30;;;;;;11983603;28;20140;-87
2021/06/13 13:08:28;;;;;;;4.75;1.95;;;28.00;48.50;;;;;;11913788;28;20420;-87
2021/06/13 13:14:24;;;;;;;1.65;1.20;;;28.20;48.10;;;;;;11946430;28;20053;-87
2021/06/13 13:20:30;;;;;;;6.30;3.45;;;28.20;43.80;;;;;;11936216;28;20567;-86
2021/06/13 13:26:19;;;;;;;1.45;1.17;;;28.30;45.30;;;;;;11934646;28;20462;-86
2021/06/13 13:32:07;;;;;;;4.53;3.15;;;28.40;43.90;;;;;;11914635;28;20112;-84
2021/06/13 13:37:58;;;;;;;3.80;1.50;;;28.50;44.50;;;;;;11921715;28;20508;-86
2021/06/13 13:43:58;;;;;;;1.92;1.23;;;28.60;45.30;;;;;;11956255;28;20569;-86
2021/06/13 13:49:45;;;;;;;3.45;1.70;;;28.70;44.90;;;;;;11966814;28;20060;-84
2021/06/13 13:55:54;;;;;;;3.40;1.30;;;28.90;44.20;;;;;;11958911;28;20061;-85
2021/06/13 14:01:41;;;;;;;2.40;1.20;;;28.90;44.00;;;;;;11932122;28;20055;-76
2021/06/13 14:07:32;;;;;;;1.83;1.40;;;29.00;44.40;;;;;;11928285;28;20042;-77
2021/06/13 14:13:21;;;;;;;2.42;1.10;;;29.10;45.00;;;;;;11936341;28;29242;-78
2021/06/13 14:19:08;;;;;;;4.22;1.30;;;29.20;45.20;;;;;;11934650;28;20057;-77
2021/06/13 14:24:56;;;;;;;1.48;1.00;;;29.30;45.80;;;;;;11929159;28;20065;-77
2021/06/13 14:30:47;;;;;;;2.20;1.20;;;29.40;44.30;;;;;;11935413;28;20049;-77
2021/06/13 14:36:37;;;;;;;1.35;0.93;;;29.40;44.00;;;;;;11905317;28;20045;-77
2021/06/13 14:42:24;;;;;;;3.38;1.15;;;29.30;44.40;;;;;;11915184;28;20064;-77
2021/06/13 14:48:13;;;;;;;1.95;1.05;;;29.30;44.20;;;;;;11916008;28;20061;-76
2021/06/13 14:54:02;;;;;;;2.08;1.08;;;29.40;46.10;;;;;;11928688;28;20103;-75
2021/06/13 14:59:49;;;;;;;3.63;1.20;;;29.50;46.10;;;;;;11911315;28;20317;-76
2021/06/13 15:05:38;;;;;;;4.07;1.15;;;29.70;44.90;;;;;;11911702;28;20475;-76
2021/06/13 15:11:26;;;;;;;2.08;1.65;;;30.00;44.30;;;;;;11933300;28;20045;-77
2021/06/13 15:17:13;;;;;;;2.10;1.15;;;30.20;44.90;;;;;;11922011;28;20080;-76
2021/06/13 15:23:02;;;;;;;2.28;1.10;;;30.40;44.50;;;;;;11943038;28;20087;-76
2021/06/13 15:28:48;;;;;;;1.75;1.10;;;30.60;44.20;;;;;;11950037;28;20072;-77
2021/06/13 15:34:36;;;;;;;3.53;1.00;;;31.30;42.10;;;;;;11953699;28;20075;-77
2021/06/13 15:40:24;;;;;;;2.03;1.10;;;32.50;41.90;;;;;;11937012;28;20091;-77
2021/06/13 15:46:11;;;;;;;1.95;1.10;;;34.00;40.40;;;;;;11910865;28;20066;-76
2021/06/13 15:52:00;;;;;;;3.38;1.00;;;35.20;37.90;;;;;;11925017;28;20405;-77
2021/06/13 15:57:48;;;;;;;3.30;1.02;;;36.20;37.40;;;;;;11937528;28;20717;-77
2021/06/13 16:03:37;;;;;;;1.08;0.82;;;37.00;35.30;;;;;;11944815;28;20049;-77
2021/06/13 16:09:24;;;;;;;3.15;0.90;;;37.90;34.80;;;;;;11900941;28;20053;-77
2021/06/13 16:15:19;;;;;;;2.55;1.13;;;38.40;34.40;;;;;;11927730;28;20091;-77
2021/06/13 16:21:07;;;;;;;3.80;1.17;;;39.10;34.20;;;;;;11934874;28;20511;-77
2021/06/13 16:26:54;;;;;;;3.00;0.98;;;39.20;33.70;;;;;;11924023;28;20111;-77
2021/06/13 16:32:42;;;;;;;3.50;0.95;;;39.50;34.00;;;;;;11945744;28;20045;-76
2021/06/13 16:38:29;;;;;;;2.90;0.90;;;39.90;32.60;;;;;;11939156;28;20162;-77
2021/06/13 16:44:16;;;;;;;1.23;0.98;;;40.40;32.20;;;;;;11936198;28;20053;-77
2021/06/13 16:50:05;;;;;;;1.17;0.90;;;40.60;31.90;;;;;;11943105;28;20503;-76
2021/06/13 16:55:55;;;;;;;1.23;0.82;;;41.20;31.60;;;;;;11939037;28;20088;-76
2021/06/13 17:01:42;;;;;;;9.07;0.90;;;41.90;30.50;;;;;;11923378;28;20050;-76
2021/06/13 17:07:30;;;;;;;5.65;3.20;;;42.70;30.00;;;;;;11923892;28;20061;-77
2021/06/13 17:13:18;;;;;;;4.82;1.13;;;43.10;29.50;;;;;;11931470;28;20147;-77
2021/06/13 17:19:04;;;;;;;6.28;1.05;;;43.70;28.80;;;;;;11923865;28;20053;-77
2021/06/13 17:24:53;;;;;;;1.98;1.30;;;43.90;29.00;;;;;;11925798;28;20097;-77
2021/06/13 17:30:40;;;;;;;4.03;1.25;;;44.60;28.90;;;;;;11932446;28;20137;-76
2021/06/13 17:36:51;;;;;;;4.40;1.08;;;44.70;28.40;;;;;;11917174;28;20377;-80
2021/06/13 17:42:39;;;;;;;2.72;1.00;;;45.10;28.20;;;;;;11941325;28;20049;-84
2021/06/13 17:48:26;;;;;;;1.70;1.10;;;45.20;27.90;;;;;;11939734;28;20044;-83
2021/06/13 17:54:15;;;;;;;1.40;1.10;;;45.50;27.60;;;;;;11939482;28;20053;-82
2021/06/13 18:00:05;;;;;;;1.92;0.80;;;45.70;27.60;;;;;;11961131;28;20469;-83
2021/06/13 18:05:54;;;;;;;1.63;0.98;;;45.50;27.30;;;;;;11958005;28;20053;-83
2021/06/13 18:11:41;;;;;;;3.75;1.17;;;45.20;27.60;;;;;;11934944;28;20053;-82
2021/06/13 18:17:32;;;;;;;2.00;0.80;;;44.80;27.50;;;;;;11922318;28;20069;-81
2021/06/13 18:23:20;;;;;;;1.20;1.10;;;44.40;28.00;;;;;;11924862;28;20675;-83
2021/06/13 18:29:09;;;;;;;1.65;1.02;;;44.20;27.90;;;;;;11945440;28;20068;-83
2021/06/13 18:34:58;;;;;;;1.70;1.00;;;44.20;28.10;;;;;;11935737;28;20057;-82
2021/06/13 18:40:46;;;;;;;6.68;1.48;;;43.80;28.20;;;;;;11934359;28;20056;-83
2021/06/13 18:46:33;;;;;;;2.33;1.10;;;43.00;28.60;;;;;;11953369;28;20149;-79
2021/06/13 18:52:21;;;;;;;1.92;1.40;;;42.40;29.20;;;;;;11947261;28;20057;-83
2021/06/13 18:58:10;;;;;;;2.60;1.90;;;41.90;29.80;;;;;;11948566;28;20055;-83
2021/06/13 19:03:57;;;;;;;4.68;1.27;;;41.40;30.40;;;;;;11924277;28;20666;-82
2021/06/13 19:09:45;;;;;;;1.60;1.20;;;40.50;30.60;;;;;;11937300;28;20058;-81
2021/06/13 19:15:33;;;;;;;2.47;1.23;;;39.80;31.10;;;;;;11948642;28;21550;-82
2021/06/13 19:21:21;;;;;;;4.78;1.25;;;38.20;32.80;;;;;;11968901;28;20179;-86
2021/06/13 19:27:10;;;;;;;6.72;1.90;;;35.70;36.30;;;;;;11968046;28;20066;-81
2021/06/13 19:32:57;;;;;;;3.22;1.45;;;33.80;40.90;;;;;;11954040;28;20504;-82
2021/06/13 19:38:44;;;;;;;5.18;1.85;;;32.40;44.10;;;;;;11939938;28;20102;-81
2021/06/13 19:44:32;;;;;;;5.60;1.42;;;31.30;45.80;;;;;;11958663;28;20053;-83
2021/06/13 19:50:24;;;;;;;2.55;1.48;;;30.40;47.30;;;;;;11955225;28;20045;-83
2021/06/13 19:56:15;;;;;;;3.50;1.52;;;29.70;48.20;;;;;;11951366;28;20076;-83
2021/06/13 20:02:09;;;;;;;3.20;1.75;;;29.20;49.00;;;;;;11949793;28;20064;-83
2021/06/13 20:07:56;;;;;;;3.83;1.63;;;28.70;49.90;;;;;;11969111;28;20109;-82
2021/06/13 20:13:44;;;;;;;3.75;1.65;;;28.60;51.10;;;;;;11959676;28;21205;-81
2021/06/13 20:19:32;;;;;;;5.35;1.70;;;28.30;50.90;;;;;;11965770;28;20069;-80
2021/06/13 20:25:20;;;;;;;2.80;1.58;;;27.90;51.00;;;;;;11961641;28;20049;-81
2021/06/13 20:31:07;;;;;;;5.20;1.73;;;27.70;51.60;;;;;;11959729;28;20514;-83
2021/06/13 20:36:55;;;;;;;3.95;1.92;;;27.50;51.50;;;;;;11957199;28;20108;-81
2021/06/13 20:42:44;;;;;;;4.78;1.40;;;27.40;51.30;;;;;;11961310;28;20068;-81
2021/06/13 20:48:32;;;;;;;2.90;1.50;;;27.20;51.50;;;;;;11941320;28;20084;-73
2021/06/13 20:54:21;;;;;;;4.50;1.77;;;26.90;51.60;;;;;;11928469;28;20144;-81
2021/06/13 21:00:10;;;;;;;2.17;1.25;;;26.70;51.70;;;;;;11970054;28;20061;-81
2021/06/13 21:05:57;;;;;;;6.70;2.13;;;26.60;52.80;;;;;;11938541;28;20061;-74
2021/06/13 21:11:46;;;;;;;5.22;1.60;;;26.60;52.10;;;;;;11925748;28;20100;-73
2021/06/13 21:17:33;;;;;;;3.92;1.60;;;26.50;52.10;;;;;;11933612;28;20058;-75
2021/06/13 21:23:21;;;;;;;3.90;1.65;;;26.30;52.20;;;;;;11938431;28;20072;-75
2021/06/13 21:29:09;;;;;;;4.30;1.52;;;26.10;52.30;;;;;;11919920;28;23703;-75
2021/06/13 21:34:57;;;;;;;2.72;1.73;;;26.00;53.00;;;;;;11930971;28;20816;-76
2021/06/13 21:40:43;;;;;;;3.67;1.73;;;25.80;53.30;;;;;;11930107;28;20593;-75
2021/06/13 21:46:32;;;;;;;4.30;1.92;;;25.60;53.20;;;;;;11925014;28;20053;-74
2021/06/13 21:52:19;;;;;;;4.28;1.98;;;25.60;53.90;;;;;;11927710;28;20049;-75
2021/06/13 21:58:07;;;;;;;11.18;2.55;;;25.50;54.80;;;;;;11932355;28;20052;-75
2021/06/13 22:03:57;;;;;;;5.43;2.20;;;25.50;55.70;;;;;;11925593;28;21140;-75
2021/06/13 22:09:44;;;;;;;6.28;2.00;;;25.60;55.90;;;;;;11928163;28;20072;-76
2021/06/13 22:15:33;;;;;;;8.90;2.33;;;25.50;56.10;;;;;;11914977;28;20053;-74
2021/06/13 22:21:22;;;;;;;2.25;1.67;;;25.50;56.70;;;;;;11916658;28;20062;-75
2021/06/13 22:27:09;;;;;;;5.38;1.90;;;25.30;55.50;;;;;;11917451;28;20061;-75
2021/06/13 22:32:57;;;;;;;2.08;1.60;;;25.10;56.00;;;;;;11918969;28;20064;-75
2021/06/13 22:38:46;;;;;;;7.50;1.95;;;25.00;55.60;;;;;;11896980;28;20049;-75
2021/06/13 22:44:33;;;;;;;7.10;2.05;;;24.90;56.20;;;;;;11924460;28;20053;-76
2021/06/13 22:50:23;;;;;;;3.38;2.00;;;24.70;56.30;;;;;;11904078;28;20057;-75
2021/06/13 22:56:12;;;;;;;2.95;2.20;;;24.70;56.70;;;;;;11924892;28;20045;-75
2021/06/13 23:01:59;;;;;;;5.72;2.50;;;24.80;57.20;;;;;;11928111;28;20076;-76
2021/06/13 23:07:49;;;;;;;5.03;1.98;;;24.80;57.50;;;;;;11948764;28;20052;-76
2021/06/13 23:13:37;;;;;;;4.15;2.08;;;24.80;58.00;;;;;;11951185;28;20049;-74
2021/06/13 23:19:25;;;;;;;4.47;1.95;;;24.70;58.10;;;;;;11954162;28;20067;-75
2021/06/13 23:25:12;;;;;;;8.75;2.75;;;24.70;58.50;;;;;;11953858;28;20057;-76
2021/06/13 23:31:02;;;;;;;5.28;2.42;;;24.60;58.70;;;;;;11961906;28;20049;-76
2021/06/13 23:36:49;;;;;;;4.03;2.10;;;24.40;58.90;;;;;;11954108;28;20431;-76
2021/06/13 23:42:37;;;;;;;5.22;2.38;;;24.20;59.10;;;;;;11916700;28;20490;-76
2021/06/13 23:48:25;;;;;;;4.78;2.35;;;24.20;59.40;;;;;;11941322;28;20050;-75
2021/06/13 23:54:12;;;;;;;6.78;2.38;;;24.20;59.40;;;;;;11963221;28;20049;-76
2021/06/13 23:59:59;;;;;;;5.93;2.70;;;24.10;59.20;;;;;;11958598;28;20080;-76
